FBSP

Selebi Phikwe Airport

Botswana
METAR FBSP 091800Z 18006KT 9999 TSRA BKN025 FEW035CB 19/18 Q1015
Observed Flight Rules
Dec-9 @ 18:00 UTC (4 hours ago) Marginal Visual Flight Rules
Wind Visibility Clouds Conditions
180° at 6 knots 10,000+ meters
  • Broken at 2,500' AGL
  • Few at 3,500' AGL
  • Thunderstorm
  • Rain
Temperatures Readings
Current 19°C / 66°F
Dewpoint 18°C / 64°F
Humidity 94%
Altimeter 29.97" Hg
Pressure 1015 hPa
Elevation 892
METAR FBSP 091800Z 18006KT 9999 TSRA BKN025 FEW035CB 19/18 Q1015
Observed Flight Rules
Dec-9 @ 18:00 UTC
(4 hours ago)
MVFR
Wind Visibility
180° at 6 knots 10,000+ meters
Clouds
  • Broken at 2,500' AGL
  • Few at 3,500' AGL
Conditions
  • Thunderstorm
  • Rain
Temperature Dewpoint
19°C / 66°F 18°C / 64°F
Humidity Altimeter Pressure
94% 29.97" Hg 1015 hPa